sensor_id;sensor_type;location;lat;lon;timestamp;pressure;altitude;pressure_sealevel;temperature;humidity
22550;BME280;11441;57.164;-2.120;2023-03-22T00:01:11;98265.97;;;8.91;100.00
22550;BME280;11441;57.164;-2.120;2023-03-22T00:03:38;98254.31;;;8.76;100.00
22550;BME280;11441;57.164;-2.120;2023-03-22T00:06:05;98260.56;;;8.80;100.00
22550;BME280;11441;57.164;-2.120;2023-03-22T00:08:33;98248.00;;;8.86;100.00
22550;BME280;11441;57.164;-2.120;2023-03-22T00:11:00;98248.06;;;8.72;100.00
22550;BME280;11441;57.164;-2.120;2023-03-22T00:13:46;98249.22;;;8.78;100.00
22550;BME280;11441;57.164;-2.120;2023-03-22T00:16:14;98240.63;;;8.73;100.00
22550;BME280;11441;57.164;-2.120;2023-03-22T00:18:40;98233.56;;;8.72;100.00
22550;BME280;11441;57.164;-2.120;2023-03-22T00:21:11;98227.75;;;8.62;100.00
22550;BME280;11441;57.164;-2.120;2023-03-22T00:23:39;98208.94;;;8.61;100.00
22550;BME280;11441;57.164;-2.120;2023-03-22T00:26:07;98197.06;;;8.78;100.00
22550;BME280;11441;57.164;-2.120;2023-03-22T00:28:55;98185.38;;;8.67;100.00
22550;BME280;11441;57.164;-2.120;2023-03-22T00:31:21;98179.94;;;8.60;100.00
22550;BME280;11441;57.164;-2.120;2023-03-22T00:33:48;98163.88;;;8.58;100.00
22550;BME280;11441;57.164;-2.120;2023-03-22T00:36:15;98146.31;;;8.48;100.00
22550;BME280;11441;57.164;-2.120;2023-03-22T00:38:42;98158.41;;;8.55;100.00
22550;BME280;11441;57.164;-2.120;2023-03-22T00:41:18;98154.50;;;8.56;100.00
22550;BME280;11441;57.164;-2.120;2023-03-22T00:43:46;98129.09;;;8.44;100.00
22550;BME280;11441;57.164;-2.120;2023-03-22T00:46:14;98113.50;;;8.27;100.00
22550;BME280;11441;57.164;-2.120;2023-03-22T00:48:41;98107.19;;;8.34;100.00
22550;BME280;11441;57.164;-2.120;2023-03-22T00:51:09;98086.09;;;8.27;100.00
22550;BME280;11441;57.164;-2.120;2023-03-22T00:53:37;98087.94;;;8.44;100.00
22550;BME280;11441;57.164;-2.120;2023-03-22T00:56:10;98071.59;;;8.26;100.00
22550;BME280;11441;57.164;-2.120;2023-03-22T00:59:00;98062.50;;;8.44;100.00
22550;BME280;11441;57.164;-2.120;2023-03-22T01:01:28;98041.41;;;8.30;100.00
22550;BME280;11441;57.164;-2.120;2023-03-22T01:03:55;98018.00;;;8.18;100.00
22550;BME280;11441;57.164;-2.120;2023-03-22T01:06:21;98036.38;;;8.21;100.00
22550;BME280;11441;57.164;-2.120;2023-03-22T01:08:49;98015.31;;;8.11;100.00
22550;BME280;11441;57.164;-2.120;2023-03-22T01:11:16;98013.16;;;8.37;100.00
22550;BME280;11441;57.164;-2.120;2023-03-22T01:13:43;98011.84;;;8.07;100.00
22550;BME280;11441;57.164;-2.120;2023-03-22T01:16:11;98010.22;;;8.09;100.00
22550;BME280;11441;57.164;-2.120;2023-03-22T01:18:38;98004.69;;;8.17;100.00
22550;BME280;11441;57.164;-2.120;2023-03-22T01:21:07;98007.78;;;8.26;100.00
22550;BME280;11441;57.164;-2.120;2023-03-22T01:23:35;98000.75;;;8.21;100.00
22550;BME280;11441;57.164;-2.120;2023-03-22T01:26:03;97991.41;;;8.11;100.00
22550;BME280;11441;57.164;-2.120;2023-03-22T01:28:30;97971.09;;;8.09;100.00
22550;BME280;11441;57.164;-2.120;2023-03-22T01:31:16;97979.75;;;8.00;100.00
22550;BME280;11441;57.164;-2.120;2023-03-22T01:33:43;97960.44;;;8.15;100.00
22550;BME280;11441;57.164;-2.120;2023-03-22T01:36:10;97945.16;;;8.17;100.00
22550;BME280;11441;57.164;-2.120;2023-03-22T01:38:36;97930.09;;;7.95;100.00
22550;BME280;11441;57.164;-2.120;2023-03-22T01:41:03;97928.91;;;7.92;100.00
22550;BME280;11441;57.164;-2.120;2023-03-22T01:43:34;97915.13;;;8.06;100.00
22550;BME280;11441;57.164;-2.120;2023-03-22T01:46:01;97915.16;;;7.99;100.00
22550;BME280;11441;57.164;-2.120;2023-03-22T01:48:36;97908.56;;;7.93;100.00
22550;BME280;11441;57.164;-2.120;2023-03-22T01:51:13;97895.94;;;8.06;100.00
22550;BME280;11441;57.164;-2.120;2023-03-22T01:54:03;97895.22;;;7.95;100.00
22550;BME280;11441;57.164;-2.120;2023-03-22T01:56:36;97886.56;;;8.00;100.00
22550;BME280;11441;57.164;-2.120;2023-03-22T01:59:08;97884.97;;;8.03;100.00
22550;BME280;11441;57.164;-2.120;2023-03-22T02:02:06;97854.78;;;8.10;100.00
22550;BME280;11441;57.164;-2.120;2023-03-22T02:04:36;97845.03;;;8.05;100.00
22550;BME280;11441;57.164;-2.120;2023-03-22T02:07:23;97847.41;;;8.03;100.00
22550;BME280;11441;57.164;-2.120;2023-03-22T02:09:55;97839.13;;;8.07;100.00
22550;BME280;11441;57.164;-2.120;2023-03-22T02:16:11;97808.34;;;7.92;100.00
22550;BME280;11441;57.164;-2.120;2023-03-22T02:21:31;97803.47;;;8.10;100.00
22550;BME280;11441;57.164;-2.120;2023-03-22T02:29:50;97791.28;;;8.11;100.00
22550;BME280;11441;57.164;-2.120;2023-03-22T02:40:13;97745.03;;;8.17;100.00
22550;BME280;11441;57.164;-2.120;2023-03-22T02:46:25;97723.41;;;8.23;100.00
22550;BME280;11441;57.164;-2.120;2023-03-22T02:51:42;97691.63;;;7.98;100.00
22550;BME280;11441;57.164;-2.120;2023-03-22T02:54:19;97697.78;;;8.06;100.00
22550;BME280;11441;57.164;-2.120;2023-03-22T02:56:58;97706.50;;;7.97;100.00
22550;BME280;11441;57.164;-2.120;2023-03-22T02:59:28;97693.75;;;7.83;100.00
22550;BME280;11441;57.164;-2.120;2023-03-22T03:02:16;97695.56;;;7.93;100.00
22550;BME280;11441;57.164;-2.120;2023-03-22T03:04:47;97676.97;;;8.12;100.00
22550;BME280;11441;57.164;-2.120;2023-03-22T03:07:18;97661.88;;;7.97;100.00
22550;BME280;11441;57.164;-2.120;2023-03-22T03:09:49;97652.84;;;8.00;100.00
22550;BME280;11441;57.164;-2.120;2023-03-22T03:12:21;97642.59;;;8.04;100.00
22550;BME280;11441;57.164;-2.120;2023-03-22T03:14:51;97633.28;;;7.98;100.00
22550;BME280;11441;57.164;-2.120;2023-03-22T03:22:53;97607.16;;;8.17;100.00
22550;BME280;11441;57.164;-2.120;2023-03-22T03:25:42;97602.31;;;8.01;100.00
22550;BME280;11441;57.164;-2.120;2023-03-22T03:32:04;97585.69;;;8.11;100.00
22550;BME280;11441;57.164;-2.120;2023-03-22T03:35:21;97580.38;;;8.01;100.00
22550;BME280;11441;57.164;-2.120;2023-03-22T03:37:30;97573.19;;;8.10;100.00
22550;BME280;11441;57.164;-2.120;2023-03-22T03:40:05;97563.63;;;8.22;100.00
22550;BME280;11441;57.164;-2.120;2023-03-22T03:42:42;97554.56;;;8.25;100.00
22550;BME280;11441;57.164;-2.120;2023-03-22T03:45:10;97549.81;;;8.29;100.00
22550;BME280;11441;57.164;-2.120;2023-03-22T03:47:38;97541.03;;;8.15;100.00
22550;BME280;11441;57.164;-2.120;2023-03-22T03:50:05;97528.34;;;8.24;100.00
22550;BME280;11441;57.164;-2.120;2023-03-22T03:52:33;97525.78;;;8.14;100.00
22550;BME280;11441;57.164;-2.120;2023-03-22T03:55:00;97508.91;;;8.15;100.00
22550;BME280;11441;57.164;-2.120;2023-03-22T03:57:31;97518.38;;;8.10;100.00
22550;BME280;11441;57.164;-2.120;2023-03-22T03:59:58;97516.13;;;8.29;100.00
22550;BME280;11441;57.164;-2.120;2023-03-22T04:02:43;97502.00;;;8.30;100.00
22550;BME280;11441;57.164;-2.120;2023-03-22T04:05:25;97494.38;;;8.42;100.00
22550;BME280;11441;57.164;-2.120;2023-03-22T04:07:52;97493.75;;;8.30;100.00
22550;BME280;11441;57.164;-2.120;2023-03-22T04:10:19;97479.88;;;8.18;100.00
22550;BME280;11441;57.164;-2.120;2023-03-22T04:12:46;97472.63;;;8.31;100.00
22550;BME280;11441;57.164;-2.120;2023-03-22T04:15:16;97460.91;;;8.27;100.00
22550;BME280;11441;57.164;-2.120;2023-03-22T04:17:48;97444.09;;;8.05;100.00
22550;BME280;11441;57.164;-2.120;2023-03-22T04:20:16;97457.84;;;8.01;100.00
22550;BME280;11441;57.164;-2.120;2023-03-22T04:22:45;97437.81;;;8.04;100.00
22550;BME280;11441;57.164;-2.120;2023-03-22T04:25:14;97443.22;;;8.08;100.00
22550;BME280;11441;57.164;-2.120;2023-03-22T04:27:53;97426.06;;;8.04;100.00
22550;BME280;11441;57.164;-2.120;2023-03-22T04:30:21;97401.00;;;8.05;100.00
22550;BME280;11441;57.164;-2.120;2023-03-22T04:32:59;97399.69;;;8.14;100.00
22550;BME280;11441;57.164;-2.120;2023-03-22T04:35:45;97378.25;;;8.08;100.00
22550;BME280;11441;57.164;-2.120;2023-03-22T04:38:13;97379.91;;;8.02;100.00
22550;BME280;11441;57.164;-2.120;2023-03-22T04:40:40;97390.16;;;7.98;100.00
22550;BME280;11441;57.164;-2.120;2023-03-22T04:43:19;97395.75;;;7.91;100.00
22550;BME280;11441;57.164;-2.120;2023-03-22T04:45:52;97361.59;;;7.96;100.00
22550;BME280;11441;57.164;-2.120;2023-03-22T04:48:24;97374.06;;;8.00;100.00
22550;BME280;11441;57.164;-2.120;2023-03-22T04:50:56;97378.84;;;7.96;100.00
22550;BME280;11441;57.164;-2.120;2023-03-22T04:53:25;97376.81;;;8.00;100.00
22550;BME280;11441;57.164;-2.120;2023-03-22T04:55:58;97373.53;;;8.09;100.00
22550;BME280;11441;57.164;-2.120;2023-03-22T04:58:44;97376.00;;;8.23;100.00
22550;BME280;11441;57.164;-2.120;2023-03-22T05:01:13;97370.22;;;8.18;100.00
22550;BME280;11441;57.164;-2.120;2023-03-22T05:03:43;97377.03;;;8.09;100.00
22550;BME280;11441;57.164;-2.120;2023-03-22T05:06:18;97371.19;;;8.07;100.00
22550;BME280;11441;57.164;-2.120;2023-03-22T05:08:54;97372.84;;;8.25;100.00
22550;BME280;11441;57.164;-2.120;2023-03-22T05:11:22;97370.44;;;8.27;100.00
22550;BME280;11441;57.164;-2.120;2023-03-22T05:14:10;97366.31;;;8.39;100.00
22550;BME280;11441;57.164;-2.120;2023-03-22T05:16:39;97363.47;;;8.46;100.00
22550;BME280;11441;57.164;-2.120;2023-03-22T05:19:07;97352.06;;;8.47;100.00
22550;BME280;11441;57.164;-2.120;2023-03-22T05:21:43;97353.16;;;8.54;100.00
22550;BME280;11441;57.164;-2.120;2023-03-22T05:24:10;97354.69;;;8.75;100.00
22550;BME280;11441;57.164;-2.120;2023-03-22T05:26:57;97332.50;;;8.65;100.00
22550;BME280;11441;57.164;-2.120;2023-03-22T05:29:27;97328.44;;;8.74;100.00
22550;BME280;11441;57.164;-2.120;2023-03-22T05:32:05;97323.78;;;8.71;100.00
22550;BME280;11441;57.164;-2.120;2023-03-22T05:34:32;97314.09;;;8.66;100.00
22550;BME280;11441;57.164;-2.120;2023-03-22T05:37:12;97322.94;;;8.74;100.00
22550;BME280;11441;57.164;-2.120;2023-03-22T05:39:49;97333.84;;;8.77;100.00
22550;BME280;11441;57.164;-2.120;2023-03-22T05:42:35;97353.38;;;8.79;100.00
22550;BME280;11441;57.164;-2.120;2023-03-22T05:45:11;97357.19;;;8.85;100.00
22550;BME280;11441;57.164;-2.120;2023-03-22T05:47:38;97336.72;;;8.90;100.00
22550;BME280;11441;57.164;-2.120;2023-03-22T05:50:14;97339.22;;;9.01;100.00
22550;BME280;11441;57.164;-2.120;2023-03-22T05:52:41;97347.63;;;8.94;100.00
22550;BME280;11441;57.164;-2.120;2023-03-22T05:55:19;97358.19;;;9.12;100.00
22550;BME280;11441;57.164;-2.120;2023-03-22T05:57:52;97345.94;;;9.16;100.00
22550;BME280;11441;57.164;-2.120;2023-03-22T06:00:21;97337.88;;;9.09;100.00
22550;BME280;11441;57.164;-2.120;2023-03-22T06:03:12;97354.13;;;9.00;100.00
22550;BME280;11441;57.164;-2.120;2023-03-22T06:05:45;97345.63;;;8.94;100.00
22550;BME280;11441;57.164;-2.120;2023-03-22T06:08:12;97362.28;;;9.03;100.00
22550;BME280;11441;57.164;-2.120;2023-03-22T06:10:39;97368.44;;;8.91;100.00
22550;BME280;11441;57.164;-2.120;2023-03-22T06:13:08;97376.13;;;8.80;100.00
22550;BME280;11441;57.164;-2.120;2023-03-22T06:15:34;97364.66;;;8.65;100.00
22550;BME280;11441;57.164;-2.120;2023-03-22T06:18:06;97384.28;;;8.83;100.00
22550;BME280;11441;57.164;-2.120;2023-03-22T06:20:41;97378.81;;;8.43;100.00
22550;BME280;11441;57.164;-2.120;2023-03-22T06:23:19;97390.88;;;8.46;100.00
22550;BME280;11441;57.164;-2.120;2023-03-22T06:25:47;97412.94;;;8.39;100.00
22550;BME280;11441;57.164;-2.120;2023-03-22T06:28:15;97413.78;;;8.36;100.00
22550;BME280;11441;57.164;-2.120;2023-03-22T06:30:48;97420.94;;;8.29;100.00
22550;BME280;11441;57.164;-2.120;2023-03-22T06:33:35;97427.09;;;8.14;100.00
22550;BME280;11441;57.164;-2.120;2023-03-22T06:36:13;97445.63;;;8.29;100.00
22550;BME280;11441;57.164;-2.120;2023-03-22T06:38:58;97445.91;;;8.11;100.00
22550;BME280;11441;57.164;-2.120;2023-03-22T06:41:45;97455.69;;;8.12;100.00
22550;BME280;11441;57.164;-2.120;2023-03-22T06:44:12;97470.22;;;8.09;100.00
22550;BME280;11441;57.164;-2.120;2023-03-22T06:46:48;97471.91;;;8.03;100.00
22550;BME280;11441;57.164;-2.120;2023-03-22T06:49:26;97482.81;;;8.07;100.00
22550;BME280;11441;57.164;-2.120;2023-03-22T06:51:54;97485.59;;;8.03;100.00
22550;BME280;11441;57.164;-2.120;2023-03-22T06:54:22;97492.94;;;8.10;100.00
22550;BME280;11441;57.164;-2.120;2023-03-22T06:56:49;97497.91;;;8.19;100.00
22550;BME280;11441;57.164;-2.120;2023-03-22T06:59:16;97493.59;;;7.90;100.00
22550;BME280;11441;57.164;-2.120;2023-03-22T07:01:43;97500.44;;;8.06;100.00
22550;BME280;11441;57.164;-2.120;2023-03-22T07:04:11;97499.84;;;7.95;100.00
22550;BME280;11441;57.164;-2.120;2023-03-22T07:06:37;97503.69;;;7.97;100.00
22550;BME280;11441;57.164;-2.120;2023-03-22T07:09:04;97509.91;;;8.01;100.00
22550;BME280;11441;57.164;-2.120;2023-03-22T07:11:34;97509.91;;;8.01;100.00
22550;BME280;11441;57.164;-2.120;2023-03-22T07:14:02;97525.44;;;8.08;100.00
22550;BME280;11441;57.164;-2.120;2023-03-22T07:16:47;97552.66;;;7.95;100.00
22550;BME280;11441;57.164;-2.120;2023-03-22T07:19:16;97556.34;;;8.12;100.00
22550;BME280;11441;57.164;-2.120;2023-03-22T07:21:45;97568.06;;;8.12;100.00
22550;BME280;11441;57.164;-2.120;2023-03-22T07:24:31;97572.97;;;8.25;100.00
22550;BME280;11441;57.164;-2.120;2023-03-22T07:27:00;97569.81;;;7.99;100.00
22550;BME280;11441;57.164;-2.120;2023-03-22T07:29:27;97576.06;;;8.03;100.00
22550;BME280;11441;57.164;-2.120;2023-03-22T07:31:54;97579.97;;;8.02;100.00
22550;BME280;11441;57.164;-2.120;2023-03-22T07:34:25;97581.88;;;8.05;100.00
22550;BME280;11441;57.164;-2.120;2023-03-22T07:37:02;97574.94;;;7.97;100.00
22550;BME280;11441;57.164;-2.120;2023-03-22T07:39:47;97589.41;;;8.01;100.00
22550;BME280;11441;57.164;-2.120;2023-03-22T07:42:15;97596.00;;;8.04;100.00
22550;BME280;11441;57.164;-2.120;2023-03-22T07:44:44;97617.25;;;7.96;100.00
22550;BME280;11441;57.164;-2.120;2023-03-22T07:47:18;97611.81;;;8.20;100.00
22550;BME280;11441;57.164;-2.120;2023-03-22T07:50:18;97617.44;;;7.82;100.00
22550;BME280;11441;57.164;-2.120;2023-03-22T07:52:50;97637.41;;;8.09;100.00
22550;BME280;11441;57.164;-2.120;2023-03-22T07:55:17;97638.03;;;7.93;100.00
22550;BME280;11441;57.164;-2.120;2023-03-22T07:57:44;97657.06;;;7.73;100.00
22550;BME280;11441;57.164;-2.120;2023-03-22T08:00:11;97655.97;;;7.67;100.00
22550;BME280;11441;57.164;-2.120;2023-03-22T08:02:44;97659.91;;;7.97;100.00
22550;BME280;11441;57.164;-2.120;2023-03-22T08:05:41;97656.03;;;7.60;100.00
22550;BME280;11441;57.164;-2.120;2023-03-22T08:08:11;97649.66;;;7.70;100.00
22550;BME280;11441;57.164;-2.120;2023-03-22T08:10:56;97665.03;;;7.95;100.00
22550;BME280;11441;57.164;-2.120;2023-03-22T08:13:23;97646.56;;;7.68;100.00
22550;BME280;11441;57.164;-2.120;2023-03-22T08:15:51;97631.06;;;7.89;100.00
22550;BME280;11441;57.164;-2.120;2023-03-22T08:18:19;97623.31;;;7.80;100.00
22550;BME280;11441;57.164;-2.120;2023-03-22T08:20:54;97635.06;;;7.81;100.00
22550;BME280;11441;57.164;-2.120;2023-03-22T08:23:25;97641.19;;;7.61;100.00
22550;BME280;11441;57.164;-2.120;2023-03-22T08:26:18;97642.63;;;7.69;100.00
22550;BME280;11441;57.164;-2.120;2023-03-22T08:28:45;97644.31;;;7.60;100.00
22550;BME280;11441;57.164;-2.120;2023-03-22T08:31:14;97654.25;;;7.81;100.00
22550;BME280;11441;57.164;-2.120;2023-03-22T08:33:44;97651.19;;;7.75;100.00
22550;BME280;11441;57.164;-2.120;2023-03-22T08:36:30;97667.28;;;7.69;100.00
22550;BME280;11441;57.164;-2.120;2023-03-22T08:39:01;97656.66;;;7.75;100.00
22550;BME280;11441;57.164;-2.120;2023-03-22T08:41:55;97672.69;;;7.77;100.00
22550;BME280;11441;57.164;-2.120;2023-03-22T08:44:24;97669.13;;;7.80;100.00
22550;BME280;11441;57.164;-2.120;2023-03-22T08:46:52;97668.63;;;7.88;100.00
22550;BME280;11441;57.164;-2.120;2023-03-22T08:49:19;97672.16;;;7.89;100.00
22550;BME280;11441;57.164;-2.120;2023-03-22T08:51:52;97648.94;;;7.97;100.00
22550;BME280;11441;57.164;-2.120;2023-03-22T08:54:38;97645.13;;;7.91;100.00
22550;BME280;11441;57.164;-2.120;2023-03-22T08:57:25;97645.63;;;7.82;100.00
22550;BME280;11441;57.164;-2.120;2023-03-22T09:00:13;97655.34;;;7.87;100.00
22550;BME280;11441;57.164;-2.120;2023-03-22T09:03:03;97643.28;;;7.81;100.00
22550;BME280;11441;57.164;-2.120;2023-03-22T09:05:30;97647.28;;;7.72;100.00
22550;BME280;11441;57.164;-2.120;2023-03-22T09:07:57;97644.78;;;7.54;100.00
22550;BME280;11441;57.164;-2.120;2023-03-22T09:10:38;97633.19;;;7.74;100.00
22550;BME280;11441;57.164;-2.120;2023-03-22T09:13:08;97636.34;;;7.72;100.00
22550;BME280;11441;57.164;-2.120;2023-03-22T09:15:36;97620.94;;;8.13;100.00
22550;BME280;11441;57.164;-2.120;2023-03-22T09:18:19;97625.38;;;8.03;100.00
22550;BME280;11441;57.164;-2.120;2023-03-22T09:20:46;97642.44;;;8.15;100.00
22550;BME280;11441;57.164;-2.120;2023-03-22T09:23:18;97645.84;;;8.26;100.00
22550;BME280;11441;57.164;-2.120;2023-03-22T09:25:46;97652.03;;;8.30;100.00
22550;BME280;11441;57.164;-2.120;2023-03-22T09:28:18;97659.13;;;8.27;100.00
22550;BME280;11441;57.164;-2.120;2023-03-22T09:30:45;97662.13;;;8.37;100.00
22550;BME280;11441;57.164;-2.120;2023-03-22T09:33:15;97655.81;;;8.40;100.00
22550;BME280;11441;57.164;-2.120;2023-03-22T09:35:48;97636.69;;;8.36;100.00
22550;BME280;11441;57.164;-2.120;2023-03-22T09:38:15;97624.25;;;8.28;100.00
22550;BME280;11441;57.164;-2.120;2023-03-22T09:41:11;97643.69;;;8.37;100.00
22550;BME280;11441;57.164;-2.120;2023-03-22T09:43:56;97666.16;;;8.28;100.00
22550;BME280;11441;57.164;-2.120;2023-03-22T09:46:34;97670.91;;;8.24;100.00
22550;BME280;11441;57.164;-2.120;2023-03-22T09:49:09;97692.75;;;8.31;100.00
22550;BME280;11441;57.164;-2.120;2023-03-22T09:52:09;97680.06;;;8.45;100.00
22550;BME280;11441;57.164;-2.120;2023-03-22T09:54:56;97677.31;;;8.72;100.00
22550;BME280;11441;57.164;-2.120;2023-03-22T10:00:17;97670.97;;;8.75;100.00
22550;BME280;11441;57.164;-2.120;2023-03-22T10:02:49;97667.19;;;8.65;100.00
22550;BME280;11441;57.164;-2.120;2023-03-22T10:05:38;97655.72;;;8.98;100.00
22550;BME280;11441;57.164;-2.120;2023-03-22T10:08:29;97671.59;;;9.10;100.00
22550;BME280;11441;57.164;-2.120;2023-03-22T10:10:59;97661.56;;;8.76;100.00
22550;BME280;11441;57.164;-2.120;2023-03-22T10:13:38;97651.72;;;9.02;100.00
22550;BME280;11441;57.164;-2.120;2023-03-22T10:16:11;97650.47;;;9.07;100.00
22550;BME280;11441;57.164;-2.120;2023-03-22T10:19:05;97660.84;;;9.19;100.00
22550;BME280;11441;57.164;-2.120;2023-03-22T10:21:34;97642.28;;;9.03;100.00
22550;BME280;11441;57.164;-2.120;2023-03-22T10:24:17;97671.94;;;9.12;100.00
22550;BME280;11441;57.164;-2.120;2023-03-22T10:26:46;97678.69;;;9.31;100.00
22550;BME280;11441;57.164;-2.120;2023-03-22T10:29:36;97671.81;;;9.43;100.00
22550;BME280;11441;57.164;-2.120;2023-03-22T10:32:18;97653.00;;;9.41;100.00
22550;BME280;11441;57.164;-2.120;2023-03-22T10:34:46;97686.50;;;9.33;100.00
22550;BME280;11441;57.164;-2.120;2023-03-22T10:37:19;97672.63;;;9.40;100.00
22550;BME280;11441;57.164;-2.120;2023-03-22T10:39:53;97662.72;;;9.46;100.00
22550;BME280;11441;57.164;-2.120;2023-03-22T10:42:24;97686.97;;;9.51;100.00
22550;BME280;11441;57.164;-2.120;2023-03-22T10:47:44;97665.47;;;9.46;100.00
22550;BME280;11441;57.164;-2.120;2023-03-22T10:50:35;97683.41;;;9.31;100.00
22550;BME280;11441;57.164;-2.120;2023-03-22T10:53:06;97705.47;;;9.47;100.00
22550;BME280;11441;57.164;-2.120;2023-03-22T10:55:38;97690.50;;;9.28;100.00
22550;BME280;11441;57.164;-2.120;2023-03-22T10:58:11;97721.44;;;9.32;100.00
22550;BME280;11441;57.164;-2.120;2023-03-22T11:00:44;97701.66;;;9.41;100.00
22550;BME280;11441;57.164;-2.120;2023-03-22T11:03:25;97684.38;;;9.20;100.00
22550;BME280;11441;57.164;-2.120;2023-03-22T11:12:09;97701.06;;;9.73;100.00
22550;BME280;11441;57.164;-2.120;2023-03-22T11:14:27;97697.47;;;9.56;100.00
22550;BME280;11441;57.164;-2.120;2023-03-22T11:17:10;97689.78;;;9.48;100.00
22550;BME280;11441;57.164;-2.120;2023-03-22T11:19:49;97702.91;;;9.80;100.00
22550;BME280;11441;57.164;-2.120;2023-03-22T11:22:25;97707.72;;;9.76;100.00
22550;BME280;11441;57.164;-2.120;2023-03-22T11:24:57;97717.38;;;10.04;100.00
22550;BME280;11441;57.164;-2.120;2023-03-22T11:27:29;97712.22;;;10.06;100.00
22550;BME280;11441;57.164;-2.120;2023-03-22T11:32:45;97739.91;;;9.95;100.00
22550;BME280;11441;57.164;-2.120;2023-03-22T11:35:19;97727.94;;;10.06;96.23
22550;BME280;11441;57.164;-2.120;2023-03-22T11:37:49;97742.44;;;10.06;97.27
22550;BME280;11441;57.164;-2.120;2023-03-22T11:40:19;97735.50;;;10.42;99.19
22550;BME280;11441;57.164;-2.120;2023-03-22T11:42:52;97738.59;;;10.44;96.31
22550;BME280;11441;57.164;-2.120;2023-03-22T11:45:30;97754.84;;;10.38;94.62
22550;BME280;11441;57.164;-2.120;2023-03-22T11:48:07;97761.44;;;10.21;93.52
22550;BME280;11441;57.164;-2.120;2023-03-22T11:50:37;97757.53;;;10.58;96.60
22550;BME280;11441;57.164;-2.120;2023-03-22T11:53:06;97754.81;;;10.74;99.16
22550;BME280;11441;57.164;-2.120;2023-03-22T11:55:37;97751.94;;;10.82;97.77
22550;BME280;11441;57.164;-2.120;2023-03-22T11:58:05;97754.25;;;11.00;95.92
22550;BME280;11441;57.164;-2.120;2023-03-22T12:00:36;97760.19;;;10.82;94.53
22550;BME280;11441;57.164;-2.120;2023-03-22T12:03:08;97755.97;;;10.93;100.00
22550;BME280;11441;57.164;-2.120;2023-03-22T12:05:46;97750.47;;;11.10;93.80
22550;BME280;11441;57.164;-2.120;2023-03-22T12:08:16;97778.28;;;11.16;91.52
22550;BME280;11441;57.164;-2.120;2023-03-22T12:10:48;97763.53;;;11.06;88.69
22550;BME280;11441;57.164;-2.120;2023-03-22T12:13:27;97745.81;;;11.23;92.59
22550;BME280;11441;57.164;-2.120;2023-03-22T12:16:20;97750.06;;;11.44;90.51
22550;BME280;11441;57.164;-2.120;2023-03-22T12:21:27;97779.22;;;11.58;90.00
22550;BME280;11441;57.164;-2.120;2023-03-22T12:23:58;97778.56;;;11.38;89.27
22550;BME280;11441;57.164;-2.120;2023-03-22T12:26:27;97756.63;;;11.63;92.85
22550;BME280;11441;57.164;-2.120;2023-03-22T12:29:04;97783.81;;;11.32;90.57
22550;BME280;11441;57.164;-2.120;2023-03-22T12:31:36;97781.97;;;11.42;89.90
22550;BME280;11441;57.164;-2.120;2023-03-22T12:34:17;97782.50;;;11.37;91.06
22550;BME280;11441;57.164;-2.120;2023-03-22T12:36:50;97801.00;;;11.20;92.09
22550;BME280;11441;57.164;-2.120;2023-03-22T12:39:27;97788.44;;;11.51;91.40
22550;BME280;11441;57.164;-2.120;2023-03-22T12:42:02;97789.41;;;11.45;89.64
22550;BME280;11441;57.164;-2.120;2023-03-22T12:44:36;97814.63;;;11.43;90.84
22550;BME280;11441;57.164;-2.120;2023-03-22T12:47:10;97786.03;;;10.68;88.35
22550;BME280;11441;57.164;-2.120;2023-03-22T12:49:55;97816.94;;;11.12;90.17
22550;BME280;11441;57.164;-2.120;2023-03-22T12:52:35;97807.69;;;11.02;89.29
22550;BME280;11441;57.164;-2.120;2023-03-22T12:55:28;97834.31;;;11.09;85.99
22550;BME280;11441;57.164;-2.120;2023-03-22T12:57:56;97821.75;;;11.08;90.92
22550;BME280;11441;57.164;-2.120;2023-03-22T13:00:37;97827.59;;;10.53;99.08
22550;BME280;11441;57.164;-2.120;2023-03-22T13:06:05;97841.94;;;10.65;100.00
22550;BME280;11441;57.164;-2.120;2023-03-22T13:09:14;97847.81;;;10.83;100.00
22550;BME280;11441;57.164;-2.120;2023-03-22T13:11:47;97824.00;;;10.77;100.00
22550;BME280;11441;57.164;-2.120;2023-03-22T13:17:39;97829.59;;;11.42;100.00
22550;BME280;11441;57.164;-2.120;2023-03-22T13:30:50;97827.44;;;11.17;100.00
22550;BME280;11441;57.164;-2.120;2023-03-22T13:33:26;97820.38;;;11.16;100.00
22550;BME280;11441;57.164;-2.120;2023-03-22T13:35:57;97839.22;;;11.01;100.00
22550;BME280;11441;57.164;-2.120;2023-03-22T13:43:46;97853.72;;;10.85;100.00
22550;BME280;11441;57.164;-2.120;2023-03-22T13:51:28;97854.72;;;11.11;92.78
22550;BME280;11441;57.164;-2.120;2023-03-22T13:56:53;97869.00;;;11.23;96.91
22550;BME280;11441;57.164;-2.120;2023-03-22T14:02:41;97879.03;;;11.33;94.31
22550;BME280;11441;57.164;-2.120;2023-03-22T14:05:15;97869.09;;;11.19;97.28
22550;BME280;11441;57.164;-2.120;2023-03-22T14:08:02;97869.34;;;11.08;95.46
22550;BME280;11441;57.164;-2.120;2023-03-22T14:10:49;97900.28;;;10.96;96.99
22550;BME280;11441;57.164;-2.120;2023-03-22T14:13:21;97895.81;;;11.02;100.00
22550;BME280;11441;57.164;-2.120;2023-03-22T14:18:58;97914.53;;;10.51;100.00
22550;BME280;11441;57.164;-2.120;2023-03-22T14:21:32;97910.81;;;10.61;100.00
22550;BME280;11441;57.164;-2.120;2023-03-22T14:23:59;97906.91;;;10.99;100.00
22550;BME280;11441;57.164;-2.120;2023-03-22T14:26:38;97914.34;;;10.62;100.00
22550;BME280;11441;57.164;-2.120;2023-03-22T14:29:15;97909.34;;;10.77;100.00
22550;BME280;11441;57.164;-2.120;2023-03-22T14:31:53;97910.88;;;10.98;100.00
22550;BME280;11441;57.164;-2.120;2023-03-22T14:34:19;97928.50;;;10.40;96.89
22550;BME280;11441;57.164;-2.120;2023-03-22T14:36:46;97913.72;;;10.54;92.59
22550;BME280;11441;57.164;-2.120;2023-03-22T14:39:19;97919.94;;;10.34;93.94
22550;BME280;11441;57.164;-2.120;2023-03-22T14:44:49;97921.84;;;10.37;98.93
22550;BME280;11441;57.164;-2.120;2023-03-22T14:47:17;97932.09;;;10.57;100.00
22550;BME280;11441;57.164;-2.120;2023-03-22T14:49:46;97939.28;;;10.27;100.00
22550;BME280;11441;57.164;-2.120;2023-03-22T14:52:18;97930.41;;;9.96;100.00
22550;BME280;11441;57.164;-2.120;2023-03-22T14:54:50;97912.94;;;10.06;100.00
22550;BME280;11441;57.164;-2.120;2023-03-22T14:57:16;97919.59;;;10.32;100.00